createdAt,value
2022-09-22T00:02:18.738Z,100113.38
2022-09-22T00:05:03.754Z,100119.59
2022-09-22T00:07:49.448Z,100116.94
2022-09-22T00:10:33.161Z,100110.53
2022-09-22T00:13:16.916Z,100098.63
2022-09-22T00:16:01.595Z,100113.56
2022-09-22T00:18:45.763Z,100101.91
2022-09-22T00:21:31.200Z,100101.28
2022-09-22T00:24:17.909Z,100103.84
2022-09-22T00:27:01.841Z,100069.88
2022-09-22T00:29:45.711Z,100111.09
2022-09-22T00:32:29.460Z,100097.25
2022-09-22T00:35:13.431Z,100102.78
2022-09-22T00:37:57.215Z,100098.81
2022-09-22T00:40:42.504Z,100093.22
2022-09-22T00:43:28.250Z,100092.19
2022-09-22T00:46:17.504Z,100083.91
2022-09-22T00:49:05.805Z,100097.09
2022-09-22T00:51:50.058Z,100105.78
2022-09-22T00:54:34.923Z,100085.63
2022-09-22T00:57:23.812Z,100051.34
2022-09-22T01:00:10.847Z,100095.72
2022-09-22T01:02:59.249Z,100097.09
2022-09-22T01:05:45.047Z,100086.84
2022-09-22T01:08:31.502Z,100099.28
2022-09-22T01:11:16.504Z,100096.19
2022-09-22T01:14:08.547Z,100070.72
2022-09-22T01:17:03.192Z,100084.69
2022-09-22T01:20:34.980Z,100102.38
2022-09-22T01:23:42.734Z,100090.75
2022-09-22T01:27:07.510Z,100087.56
2022-09-22T01:30:20.728Z,100097.56
2022-09-22T01:33:17.948Z,100085.00
2022-09-22T01:36:13.410Z,100098.81
2022-09-22T01:39:06.885Z,100088.09
2022-09-22T01:41:58.499Z,100099.75
2022-09-22T01:44:49.290Z,100103.63
2022-09-22T01:47:40.766Z,100101.22
2022-09-22T01:50:29.085Z,100100.22
2022-09-22T01:53:15.508Z,100100.38
2022-09-22T01:56:05.867Z,100104.00
2022-09-22T01:58:54.021Z,100053.94
2022-09-22T02:01:42.499Z,100102.56
2022-09-22T02:04:34.473Z,100096.94
2022-09-22T02:07:25.517Z,100085.63
2022-09-22T02:10:13.629Z,100095.56
2022-09-22T02:12:57.388Z,100105.94
2022-09-22T02:15:58.734Z,100102.94
2022-09-22T02:18:46.658Z,99984.59
2022-09-22T02:21:32.242Z,100106.88
2022-09-22T02:24:33.194Z,100086.78
2022-09-22T02:27:25.640Z,100094.31
2022-09-22T02:30:12.744Z,100095.66
2022-09-22T02:32:58.865Z,100090.09
2022-09-22T02:35:48.705Z,100088.47
2022-09-22T02:38:39.944Z,100042.47
2022-09-22T02:41:30.988Z,100080.44
2022-09-22T02:44:21.343Z,100084.06
2022-09-22T02:47:11.107Z,100051.31
2022-09-22T02:49:56.966Z,100086.75
2022-09-22T02:52:42.049Z,100045.91
2022-09-22T02:55:27.494Z,100088.09
2022-09-22T02:58:11.560Z,100043.25
2022-09-22T03:00:55.539Z,100063.44
2022-09-22T03:03:39.584Z,100112.16
2022-09-22T03:06:23.600Z,100072.03
2022-09-22T03:09:07.681Z,100074.75
2022-09-22T03:11:53.484Z,100111.22
2022-09-22T03:14:37.524Z,100063.53
2022-09-22T03:17:21.544Z,100060.19
2022-09-22T03:20:06.920Z,100071.09
2022-09-22T03:22:51.072Z,100083.44
2022-09-22T03:25:35.432Z,100097.25
2022-09-22T03:28:21.473Z,100002.84
2022-09-22T03:31:05.499Z,100084.38
2022-09-22T03:33:52.754Z,100089.03
2022-09-22T03:36:37.048Z,100045.28
2022-09-22T03:39:21.460Z,100098.03
2022-09-22T03:42:05.788Z,100059.25
2022-09-22T03:44:51.177Z,100101.75
2022-09-22T03:47:35.086Z,100050.38
2022-09-22T03:50:19.229Z,100058.75
2022-09-22T03:53:03.216Z,100061.25
2022-09-22T03:55:47.320Z,100057.19
2022-09-22T03:58:31.242Z,100098.81
2022-09-22T04:01:17.134Z,100099.56
2022-09-22T04:04:01.285Z,100094.75
2022-09-22T04:06:45.418Z,100053.94
2022-09-22T04:09:29.354Z,100056.97
2022-09-22T04:12:13.285Z,100099.72
2022-09-22T04:14:57.264Z,100098.81
2022-09-22T04:17:42.684Z,100072.25
2022-09-22T04:20:27.375Z,100083.91
2022-09-22T04:23:11.542Z,100082.38
2022-09-22T04:25:55.556Z,100058.75
2022-09-22T04:28:39.495Z,100073.03
2022-09-22T04:31:24.191Z,100106.09
2022-09-22T04:34:09.583Z,100064.53
2022-09-22T04:36:53.654Z,100076.38
2022-09-22T04:39:37.978Z,100027.00
2022-09-22T04:42:21.946Z,100075.69
2022-09-22T04:45:07.132Z,100078.94
2022-09-22T04:47:53.148Z,100077.28
2022-09-22T04:50:38.634Z,100140.22
2022-09-22T04:53:22.959Z,100087.78
2022-09-22T04:56:07.450Z,100149.78
2022-09-22T04:58:51.429Z,100157.09
2022-09-22T05:01:35.714Z,100149.56
2022-09-22T05:04:19.606Z,100160.16
2022-09-22T05:07:04.896Z,100171.28
2022-09-22T05:09:48.733Z,100139.22
2022-09-22T05:12:32.652Z,100175.22
2022-09-22T05:15:16.574Z,100159.72
2022-09-22T05:18:00.449Z,100176.16
2022-09-22T05:20:44.777Z,100182.41
2022-09-22T05:23:30.377Z,100189.28
2022-09-22T05:26:14.227Z,100181.31
2022-09-22T05:28:58.557Z,100181.19
2022-09-22T05:31:42.384Z,100174.22
2022-09-22T05:34:26.202Z,100187.13
2022-09-22T05:37:10.034Z,100186.53
2022-09-22T05:39:55.178Z,100177.63
2022-09-22T05:42:42.246Z,100176.13
2022-09-22T05:45:26.079Z,100175.25
2022-09-22T05:48:09.959Z,100117.59
2022-09-22T05:50:53.733Z,100154.78
2022-09-22T05:53:37.494Z,100168.13
2022-09-22T05:56:22.603Z,100159.75
2022-09-22T05:59:06.335Z,100160.19
2022-09-22T06:01:50.202Z,100165.50
2022-09-22T06:04:34.051Z,100178.63
2022-09-22T06:07:20.301Z,100157.88
2022-09-22T06:10:04.031Z,100164.50
2022-09-22T06:12:49.457Z,100156.66
2022-09-22T06:15:34.006Z,100163.63
2022-09-22T06:18:24.173Z,100154.78
2022-09-22T06:21:08.468Z,100155.03
2022-09-22T06:23:52.458Z,100158.50
2022-09-22T06:26:36.206Z,100147.25
2022-09-22T06:29:21.360Z,100144.91
2022-09-22T06:32:05.267Z,100133.91
2022-09-22T06:34:49.107Z,100168.00
2022-09-22T06:37:33.302Z,100165.38
2022-09-22T06:40:17.690Z,100154.69
2022-09-22T06:43:07.673Z,100158.50
2022-09-22T06:45:53.564Z,100129.53
2022-09-22T06:48:37.902Z,100158.28
2022-09-22T06:51:21.669Z,100154.25
2022-09-22T06:54:07.000Z,100142.88
2022-09-22T06:56:50.804Z,100169.16
2022-09-22T06:59:37.944Z,100173.00
2022-09-22T07:02:23.365Z,100172.13
2022-09-22T07:05:08.242Z,100161.91
2022-09-22T07:07:51.886Z,100177.72
2022-09-22T07:10:38.030Z,100171.50
2022-09-22T07:13:22.403Z,100170.44
2022-09-22T07:16:09.126Z,100162.66
2022-09-22T07:18:56.366Z,100167.75
2022-09-22T07:21:40.544Z,100179.28
2022-09-22T07:24:24.418Z,100180.72
2022-09-22T07:27:08.173Z,100178.75
2022-09-22T07:29:52.322Z,100193.88
2022-09-22T07:32:36.105Z,100192.56
2022-09-22T07:35:21.306Z,100195.44
2022-09-22T07:38:05.219Z,100195.38
2022-09-22T07:40:55.588Z,100198.41
2022-09-22T07:43:39.945Z,100125.34
2022-09-22T07:46:23.983Z,100155.84
2022-09-22T07:49:08.324Z,100154.78
2022-09-22T07:51:55.196Z,100187.75
2022-09-22T07:54:39.928Z,100169.47
2022-09-22T07:57:24.079Z,100156.09
2022-09-22T08:00:09.426Z,100185.75
2022-09-22T08:02:57.955Z,100184.75
2022-09-22T08:05:41.929Z,100162.81
2022-09-22T08:08:27.426Z,100165.91
2022-09-22T08:11:15.170Z,100186.47
2022-09-22T08:14:00.983Z,100156.47
2022-09-22T08:16:46.144Z,100183.69
2022-09-22T08:19:34.039Z,100165.19
2022-09-22T08:22:18.891Z,100185.06
2022-09-22T08:25:04.976Z,100146.19
2022-09-22T08:27:49.004Z,100188.25
2022-09-22T08:30:32.951Z,100138.50
2022-09-22T08:33:17.272Z,100139.38
2022-09-22T08:36:03.939Z,100140.50
2022-09-22T08:38:49.755Z,100128.63
2022-09-22T08:41:47.066Z,100185.75
2022-09-22T08:44:37.549Z,100161.56
2022-09-22T08:47:42.341Z,100136.69
2022-09-22T08:50:51.394Z,100143.50
2022-09-22T08:53:41.570Z,100144.47
2022-09-22T08:56:29.336Z,100155.38
2022-09-22T08:59:20.981Z,100110.53
2022-09-22T09:02:38.210Z,100184.28
2022-09-22T09:05:54.650Z,100189.81
2022-09-22T09:09:20.110Z,100179.19
2022-09-22T09:12:19.445Z,100145.91
2022-09-22T09:15:29.057Z,100176.88
2022-09-22T09:18:16.812Z,100170.78
2022-09-22T09:21:04.875Z,100132.09
2022-09-22T09:27:07.815Z,100164.06
2022-09-22T09:30:01.408Z,100165.38
2022-09-22T09:32:51.994Z,100167.13
2022-09-22T09:35:44.369Z,100129.19
2022-09-22T09:38:31.106Z,100137.53
2022-09-22T09:41:19.175Z,100173.56
2022-09-22T09:44:05.747Z,100157.97
2022-09-22T09:46:58.296Z,100137.41
2022-09-22T09:49:44.086Z,100183.50
2022-09-22T09:52:29.466Z,100144.44
2022-09-22T09:55:27.415Z,100174.13
2022-09-22T09:58:35.333Z,100169.66
2022-09-22T10:01:18.544Z,100140.34
2022-09-22T10:04:02.896Z,100165.38
2022-09-22T10:06:48.844Z,100160.22
2022-09-22T10:09:32.942Z,100158.13
2022-09-22T10:12:29.764Z,100144.03
2022-09-22T10:15:25.904Z,100127.91
2022-09-22T10:18:33.894Z,100145.47
2022-09-22T10:21:19.655Z,100113.56
2022-09-22T10:24:25.621Z,100128.22
2022-09-22T10:27:24.278Z,100138.78
2022-09-22T10:30:22.737Z,100103.88
2022-09-22T10:33:15.703Z,100129.94
2022-09-22T10:36:10.981Z,100132.00
2022-09-22T10:38:59.654Z,100109.69
2022-09-22T10:41:48.334Z,100115.59
2022-09-22T10:44:39.330Z,100136.03
2022-09-22T10:47:32.467Z,100098.38
2022-09-22T10:50:41.301Z,100114.19
2022-09-22T10:53:40.011Z,100130.00
2022-09-22T10:56:34.263Z,100114.63
2022-09-22T10:59:37.566Z,100120.69
2022-09-22T11:03:15.084Z,100117.97
2022-09-22T11:06:27.652Z,100125.00
2022-09-22T11:09:34.037Z,100125.50
2022-09-22T11:12:30.991Z,100116.03
2022-09-22T11:15:40.046Z,100113.41
2022-09-22T11:18:43.387Z,100117.97
2022-09-22T11:21:39.752Z,100123.56
2022-09-22T11:24:38.292Z,100117.50
2022-09-22T11:27:36.491Z,100102.69
2022-09-22T11:30:23.062Z,100111.44
2022-09-22T11:33:31.954Z,100106.66
2022-09-22T11:36:26.509Z,100113.50
2022-09-22T11:39:22.039Z,100090.75
2022-09-22T11:42:19.630Z,100120.31
2022-09-22T11:45:09.723Z,100110.72
2022-09-22T11:48:06.489Z,100104.78
2022-09-22T11:51:04.885Z,100107.94
2022-09-22T11:54:04.513Z,100103.91
2022-09-22T11:56:51.509Z,100096.16
2022-09-22T11:59:41.822Z,100090.84
2022-09-22T12:02:30.660Z,100087.00
2022-09-22T12:05:19.999Z,100094.56
2022-09-22T12:08:08.456Z,100086.19
2022-09-22T12:10:52.875Z,100100.66
2022-09-22T12:13:42.117Z,100101.59
2022-09-22T12:16:31.883Z,100096.13
2022-09-22T12:19:25.319Z,100099.94
2022-09-22T12:22:17.932Z,100106.91
2022-09-22T12:25:03.463Z,100086.63
2022-09-22T12:27:47.398Z,100109.66
2022-09-22T12:30:31.235Z,100097.88
2022-09-22T12:33:17.226Z,100104.78
2022-09-22T12:36:02.315Z,100084.94
2022-09-22T12:38:46.915Z,100098.44
2022-09-22T12:41:32.275Z,100102.78
2022-09-22T12:44:23.142Z,100085.28
2022-09-22T12:47:09.259Z,100076.56
2022-09-22T12:49:57.494Z,100073.63
2022-09-22T12:53:04.335Z,100087.94
2022-09-22T12:55:48.715Z,100099.22
2022-09-22T12:58:44.372Z,100087.53
2022-09-22T13:01:37.266Z,100098.16
2022-09-22T13:04:21.120Z,100100.81
2022-09-22T13:07:06.127Z,100093.06
2022-09-22T13:09:49.824Z,100095.75
2022-09-22T13:12:33.586Z,100096.09
2022-09-22T13:15:21.111Z,100086.09
2022-09-22T13:18:05.089Z,100097.63
2022-09-22T13:20:49.678Z,100089.78
2022-09-22T13:23:33.435Z,100099.22
2022-09-22T13:26:19.923Z,100107.22
2022-09-22T13:29:12.134Z,100106.19
2022-09-22T13:31:58.008Z,100102.41
2022-09-22T13:34:41.678Z,100108.50
2022-09-22T13:37:26.142Z,100112.63
2022-09-22T13:40:12.397Z,100062.66
2022-09-22T13:43:00.281Z,100107.59
2022-09-22T13:45:46.984Z,100119.53
2022-09-22T13:48:35.640Z,100101.25
2022-09-22T13:51:19.760Z,100104.28
2022-09-22T13:54:04.990Z,100093.94
2022-09-22T13:56:49.307Z,100075.03
2022-09-22T13:59:39.844Z,100114.56
2022-09-22T14:02:30.778Z,100080.78
2022-09-22T14:05:23.050Z,100113.09
2022-09-22T14:08:12.745Z,100072.41
2022-09-22T14:10:58.972Z,100102.97
2022-09-22T14:13:45.203Z,100117.59
2022-09-22T14:16:34.239Z,100119.03
2022-09-22T14:19:21.199Z,100053.97
2022-09-22T14:22:15.507Z,100099.66
2022-09-22T14:25:01.606Z,100118.66
2022-09-22T14:27:52.081Z,100126.31
2022-09-22T14:30:42.023Z,100122.06
2022-09-22T14:33:29.082Z,100124.59
2022-09-22T14:36:18.716Z,100098.81
2022-09-22T14:39:10.033Z,100128.31
2022-09-22T14:41:59.250Z,100129.13
2022-09-22T14:44:45.861Z,100120.44
2022-09-22T14:47:39.216Z,100134.81
2022-09-22T14:50:39.500Z,100086.94
2022-09-22T14:53:27.613Z,100135.88
2022-09-22T14:56:20.296Z,100102.22
2022-09-22T14:59:28.198Z,100130.63
2022-09-22T15:02:33.553Z,100124.06
2022-09-22T15:05:29.572Z,100132.59
2022-09-22T15:08:18.848Z,100133.13
2022-09-22T15:11:03.498Z,100137.69
2022-09-22T15:13:52.846Z,100137.50
2022-09-22T15:16:39.169Z,100103.31
2022-09-22T15:19:23.060Z,100134.84
2022-09-22T15:22:07.366Z,100134.84
2022-09-22T15:24:51.317Z,100127.06
2022-09-22T15:27:35.219Z,100137.69
2022-09-22T15:30:21.988Z,100140.16
2022-09-22T15:33:06.107Z,100144.34
2022-09-22T15:35:53.880Z,100140.78
2022-09-22T15:38:39.225Z,100129.69
2022-09-22T15:41:22.999Z,100145.00
2022-09-22T15:44:07.210Z,100147.28
2022-09-22T15:46:54.930Z,100114.41
2022-09-22T15:49:38.595Z,100149.09
2022-09-22T15:52:22.382Z,100152.97
2022-09-22T15:55:06.494Z,100139.75
2022-09-22T15:57:54.882Z,100152.34
2022-09-22T16:00:39.019Z,100142.41
2022-09-22T16:03:24.786Z,100142.78
2022-09-22T16:06:11.772Z,100151.34
2022-09-22T16:08:56.477Z,100150.44
2022-09-22T16:11:40.138Z,100150.28
2022-09-22T16:14:24.100Z,100109.88
2022-09-22T16:17:08.395Z,100157.19
2022-09-22T16:19:53.793Z,100158.47
2022-09-22T16:22:37.769Z,100132.25
2022-09-22T16:25:21.937Z,100122.88
2022-09-22T16:28:07.700Z,100123.75
2022-09-22T16:30:51.743Z,100083.66
2022-09-22T16:33:35.709Z,100157.38
2022-09-22T16:36:21.612Z,100160.69
2022-09-22T16:39:05.606Z,100142.50
2022-09-22T16:41:49.500Z,100173.03
2022-09-22T16:44:33.199Z,100175.63
2022-09-22T16:47:18.491Z,100180.63
2022-09-22T16:50:02.391Z,100181.38
2022-09-22T16:52:48.345Z,100174.88
2022-09-22T16:55:35.579Z,100178.75
2022-09-22T16:58:20.948Z,100187.78
2022-09-22T17:01:05.132Z,100190.13
2022-09-22T17:03:50.722Z,100150.22
2022-09-22T17:06:36.186Z,100154.72
2022-09-22T17:09:21.782Z,100200.50
2022-09-22T17:12:10.727Z,100191.84
2022-09-22T17:14:54.407Z,100199.34
2022-09-22T17:17:39.663Z,100182.84
2022-09-22T17:20:24.088Z,100201.41
2022-09-22T17:23:08.032Z,100205.53
2022-09-22T17:25:53.160Z,100215.13
2022-09-22T17:28:37.041Z,100208.38
2022-09-22T17:31:21.334Z,100220.47
2022-09-22T17:34:05.226Z,100223.84
2022-09-22T17:36:49.050Z,100216.25
2022-09-22T17:39:32.890Z,100220.88
2022-09-22T17:42:18.438Z,100210.00
2022-09-22T17:45:02.966Z,100210.38
2022-09-22T17:48:04.675Z,100207.13
2022-09-22T17:51:08.139Z,100184.56
2022-09-22T17:54:08.405Z,100227.81
2022-09-22T17:56:52.224Z,100232.19
2022-09-22T17:59:38.331Z,100231.69
2022-09-22T18:02:22.223Z,100239.38
2022-09-22T18:05:07.016Z,100230.19
2022-09-22T18:07:53.789Z,100237.41
2022-09-22T18:10:37.689Z,100239.50
2022-09-22T18:13:21.430Z,100225.19
2022-09-22T18:16:21.187Z,100238.44
2022-09-22T18:19:05.795Z,100244.09
2022-09-22T18:21:49.738Z,100250.31
2022-09-22T18:24:33.466Z,100250.09
2022-09-22T18:27:19.712Z,100251.81
2022-09-22T18:30:05.207Z,100256.91
2022-09-22T18:32:50.463Z,100240.63
2022-09-22T18:35:34.583Z,100256.50
2022-09-22T18:38:18.410Z,100252.41
2022-09-22T18:41:02.383Z,100133.47
2022-09-22T18:43:46.243Z,100265.25
2022-09-22T18:46:30.997Z,100257.38
2022-09-22T18:49:17.258Z,100226.28
2022-09-22T18:52:02.840Z,100268.25
2022-09-22T18:54:46.952Z,100264.03
2022-09-22T18:57:30.898Z,100222.38
2022-09-22T19:00:16.241Z,100261.91
2022-09-22T19:03:00.640Z,100260.94
2022-09-22T19:05:46.163Z,100267.81
2022-09-22T19:08:30.050Z,100263.16
2022-09-22T19:11:17.552Z,100269.53
2022-09-22T19:14:02.223Z,100259.47
2022-09-22T19:16:46.781Z,100267.25
2022-09-22T19:19:30.750Z,100267.06
2022-09-22T19:22:15.996Z,100270.53
2022-09-22T19:25:04.304Z,100269.72
2022-09-22T19:27:48.835Z,100268.19
2022-09-22T19:30:32.704Z,100262.69
2022-09-22T19:33:16.723Z,100266.84
2022-09-22T19:36:00.759Z,100262.88
2022-09-22T19:38:45.907Z,100258.72
2022-09-22T19:41:29.669Z,100248.00
2022-09-22T19:44:13.929Z,100269.97
2022-09-22T19:46:57.842Z,100271.53
2022-09-22T19:49:42.296Z,100246.47
2022-09-22T19:52:26.198Z,100269.19
2022-09-22T19:55:12.583Z,100255.59
2022-09-22T19:57:56.368Z,100264.50
2022-09-22T20:00:40.970Z,100253.56
2022-09-22T20:03:24.690Z,100276.94
2022-09-22T20:06:08.557Z,100262.75
2022-09-22T20:08:55.835Z,100273.13
2022-09-22T20:11:43.955Z,100264.91
2022-09-22T20:14:29.896Z,100272.22
2022-09-22T20:17:13.944Z,100262.06
2022-09-22T20:19:57.731Z,100271.34
2022-09-22T20:22:42.080Z,100270.63
2022-09-22T20:25:28.672Z,100270.00
2022-09-22T20:28:14.155Z,100269.41
2022-09-22T20:30:57.970Z,100266.63
2022-09-22T20:33:41.936Z,100270.22
2022-09-22T20:36:25.670Z,100272.03
2022-09-22T20:39:09.748Z,100276.25
2022-09-22T20:41:53.472Z,100263.41
2022-09-22T20:44:39.031Z,100271.53
2022-09-22T20:47:25.918Z,100271.88
2022-09-22T20:50:11.981Z,100259.38
2022-09-22T20:52:56.233Z,100278.41
2022-09-22T20:55:39.916Z,100280.56
2022-09-22T20:58:23.834Z,100286.91
2022-09-22T21:01:10.565Z,100288.03
2022-09-22T21:03:54.388Z,100282.16
2022-09-22T21:06:38.158Z,100288.91
2022-09-22T21:09:38.977Z,100286.13
2022-09-22T21:12:25.281Z,100268.28
2022-09-22T21:15:12.841Z,100272.22
2022-09-22T21:17:58.596Z,100254.81
2022-09-22T21:20:42.597Z,100278.78
2022-09-22T21:23:26.587Z,100274.28
2022-09-22T21:26:12.577Z,100226.03
2022-09-22T21:28:57.019Z,100222.88
2022-09-22T21:31:41.219Z,100229.72
2022-09-22T21:34:26.792Z,100281.94
2022-09-22T21:37:11.083Z,100277.34
2022-09-22T21:39:54.898Z,100232.44
2022-09-22T21:42:38.788Z,100244.06
2022-09-22T21:45:22.576Z,100280.22
2022-09-22T21:48:06.323Z,100277.34
2022-09-22T21:50:57.705Z,100277.38
2022-09-22T21:53:44.126Z,100266.59
2022-09-22T21:56:30.125Z,100239.78
2022-09-22T21:59:14.749Z,100262.59
2022-09-22T22:01:58.707Z,100270.84
2022-09-22T22:04:43.954Z,100256.50
2022-09-22T22:07:29.089Z,100265.91
2022-09-22T22:10:12.802Z,100265.22
2022-09-22T22:12:56.691Z,100250.03
2022-09-22T22:15:41.038Z,100263.78
2022-09-22T22:18:24.775Z,100252.06
2022-09-22T22:21:10.802Z,100250.59
2022-09-22T22:24:14.126Z,100251.81
2022-09-22T22:27:01.500Z,100257.28
2022-09-22T22:29:46.721Z,100261.13
2022-09-22T22:32:30.414Z,100253.94
2022-09-22T22:35:14.294Z,100259.22
2022-09-22T22:37:57.996Z,100244.66
2022-09-22T22:40:43.274Z,100251.72
2022-09-22T22:43:27.247Z,100242.41
2022-09-22T22:46:16.677Z,100242.50
2022-09-22T22:49:00.925Z,100211.19
2022-09-22T22:51:44.826Z,100229.19
2022-09-22T22:54:28.674Z,100239.94
2022-09-22T22:57:13.800Z,100243.00
2022-09-22T22:59:58.218Z,100182.75
2022-09-22T23:02:41.926Z,100237.53
2022-09-22T23:05:25.681Z,100223.00
2022-09-22T23:08:09.870Z,100240.00
2022-09-22T23:11:02.508Z,100240.47
2022-09-22T23:13:51.022Z,100238.75
2022-09-22T23:16:37.799Z,100242.50
2022-09-22T23:19:21.564Z,100238.06
2022-09-22T23:22:05.769Z,100236.88
2022-09-22T23:24:49.593Z,100243.44
2022-09-22T23:27:33.350Z,100240.56
2022-09-22T23:30:18.810Z,100257.03
2022-09-22T23:33:02.730Z,100254.53
2022-09-22T23:35:54.617Z,100256.38
2022-09-22T23:38:38.460Z,100259.44
2022-09-22T23:41:22.617Z,100262.59
2022-09-22T23:44:07.247Z,100228.25
2022-09-22T23:46:52.431Z,100263.19
2022-09-22T23:49:36.067Z,100254.22
2022-09-22T23:52:19.968Z,100270.66
2022-09-22T23:55:03.778Z,100263.44
2022-09-22T23:57:47.911Z,100266.75
